createdAt,value
2023-05-09T00:01:40.243Z,67.65
2023-05-09T00:04:09.392Z,72.25
2023-05-09T00:06:38.881Z,73.01
2023-05-09T00:09:08.412Z,74.66
2023-05-09T00:11:37.657Z,75.26
2023-05-09T00:14:07.018Z,70.30
2023-05-09T00:16:38.027Z,72.01
2023-05-09T00:19:07.698Z,74.41
2023-05-09T00:21:37.001Z,71.52
2023-05-09T00:24:07.304Z,76.35
2023-05-09T00:26:36.514Z,71.91
2023-05-09T00:29:06.270Z,74.83
2023-05-09T00:31:36.487Z,76.86
2023-05-09T00:34:07.192Z,76.03
2023-05-09T00:36:36.625Z,78.41
2023-05-09T00:39:06.554Z,75.97
2023-05-09T00:41:35.798Z,71.28
2023-05-09T00:44:04.847Z,70.81
2023-05-09T00:46:33.977Z,72.19
2023-05-09T00:49:03.954Z,73.61
2023-05-09T00:51:34.992Z,70.62
2023-05-09T00:54:04.000Z,72.94
2023-05-09T00:56:33.573Z,69.46
2023-05-09T00:59:03.224Z,67.90
2023-05-09T01:01:32.893Z,69.47
2023-05-09T01:04:02.483Z,70.85
2023-05-09T01:06:39.837Z,67.92
2023-05-09T01:09:20.759Z,68.18
2023-05-09T01:11:56.806Z,71.27
2023-05-09T01:14:34.281Z,73.04
2023-05-09T01:17:12.248Z,77.49
2023-05-09T01:19:55.398Z,70.60
2023-05-09T01:22:31.120Z,68.29
2023-05-09T01:25:39.372Z,68.45
2023-05-09T01:28:15.854Z,66.97
2023-05-09T01:30:48.611Z,66.96
2023-05-09T01:33:20.594Z,63.03
2023-05-09T01:35:53.843Z,63.59
2023-05-09T01:38:26.988Z,63.22
2023-05-09T01:40:59.890Z,65.12
2023-05-09T01:43:31.402Z,68.29
2023-05-09T01:46:03.626Z,69.94
2023-05-09T01:48:34.879Z,66.88
2023-05-09T01:51:05.642Z,66.27
2023-05-09T01:53:36.240Z,65.68
2023-05-09T01:56:06.995Z,67.77
2023-05-09T01:58:38.439Z,67.91
2023-05-09T02:01:10.107Z,63.91
2023-05-09T02:03:40.479Z,63.00
2023-05-09T02:06:11.389Z,62.74
2023-05-09T02:08:41.410Z,62.76
2023-05-09T02:11:10.884Z,63.99
2023-05-09T02:13:40.480Z,64.50
2023-05-09T02:16:12.390Z,60.87
2023-05-09T02:18:42.353Z,61.72
2023-05-09T02:21:11.367Z,63.43
2023-05-09T02:23:40.585Z,65.51
2023-05-09T02:26:10.239Z,66.78
2023-05-09T02:28:40.686Z,69.28
2023-05-09T02:31:13.664Z,67.57
2023-05-09T02:33:45.270Z,66.92
2023-05-09T02:36:16.769Z,68.96
2023-05-09T02:38:46.365Z,67.10
2023-05-09T02:41:15.534Z,69.07
2023-05-09T02:43:44.906Z,67.98
2023-05-09T02:46:15.362Z,72.23
2023-05-09T02:48:44.732Z,70.57
2023-05-09T02:51:14.323Z,64.75
2023-05-09T02:53:43.465Z,64.06
2023-05-09T02:56:13.072Z,64.82
2023-05-09T02:58:42.260Z,65.03
2023-05-09T03:01:11.320Z,64.92
2023-05-09T03:03:42.075Z,63.93
2023-05-09T03:06:11.367Z,63.02
2023-05-09T03:08:40.579Z,62.76
2023-05-09T03:11:11.133Z,61.34
2023-05-09T03:13:40.496Z,60.64
2023-05-09T03:16:09.809Z,60.18
2023-05-09T03:18:38.912Z,61.00
2023-05-09T03:21:09.508Z,59.74
2023-05-09T03:23:40.652Z,59.59
2023-05-09T03:26:10.090Z,59.57
2023-05-09T03:28:39.603Z,60.60
2023-05-09T03:31:09.038Z,61.60
2023-05-09T03:33:38.166Z,60.33
2023-05-09T03:36:07.977Z,59.61
2023-05-09T03:38:39.316Z,60.11
2023-05-09T03:41:08.948Z,58.45
2023-05-09T03:43:38.388Z,58.54
2023-05-09T03:46:07.424Z,58.45
2023-05-09T03:48:37.177Z,58.52
2023-05-09T03:51:06.840Z,58.68
2023-05-09T03:53:41.014Z,57.46
2023-05-09T03:56:11.727Z,56.47
2023-05-09T03:58:48.688Z,56.21
2023-05-09T04:01:19.122Z,56.76
2023-05-09T04:03:48.883Z,56.06
2023-05-09T04:06:18.761Z,55.77
2023-05-09T04:08:49.290Z,55.94
2023-05-09T04:11:21.788Z,54.92
2023-05-09T04:13:51.798Z,55.39
2023-05-09T04:16:31.891Z,55.50
2023-05-09T04:19:02.077Z,55.12
2023-05-09T04:21:32.296Z,55.18
2023-05-09T04:24:04.776Z,54.95
2023-05-09T04:26:44.372Z,54.77
2023-05-09T04:29:16.874Z,56.10
2023-05-09T04:31:51.643Z,55.41
2023-05-09T04:34:21.859Z,54.80
2023-05-09T04:36:52.252Z,53.98
2023-05-09T04:39:23.500Z,54.45
2023-05-09T04:42:02.838Z,53.52
2023-05-09T04:44:32.189Z,53.42
2023-05-09T04:47:02.356Z,54.40
2023-05-09T04:49:31.731Z,52.93
2023-05-09T04:52:00.864Z,52.21
2023-05-09T04:54:32.386Z,52.53
2023-05-09T04:57:17.376Z,52.16
2023-05-09T04:59:51.044Z,51.05
2023-05-09T05:02:21.601Z,51.36
2023-05-09T05:04:57.951Z,51.46
2023-05-09T05:07:36.336Z,50.82
2023-05-09T05:10:07.813Z,50.50
2023-05-09T05:12:38.126Z,51.18
2023-05-09T05:15:12.019Z,50.25
2023-05-09T05:17:42.139Z,50.54
2023-05-09T05:20:12.611Z,49.96
2023-05-09T05:22:46.551Z,49.63
2023-05-09T05:25:17.883Z,49.78
2023-05-09T05:27:49.208Z,49.97
2023-05-09T05:30:18.672Z,50.29
2023-05-09T05:32:48.353Z,50.08
2023-05-09T05:35:23.363Z,48.85
2023-05-09T05:37:56.346Z,48.98
2023-05-09T05:40:27.512Z,49.43
2023-05-09T05:42:58.262Z,49.17
2023-05-09T05:45:30.414Z,48.42
2023-05-09T05:48:02.876Z,48.54
2023-05-09T05:50:34.185Z,49.07
2023-05-09T05:53:03.747Z,48.81
2023-05-09T05:55:34.349Z,47.28
2023-05-09T05:58:03.484Z,47.58
2023-05-09T06:00:35.293Z,45.49
2023-05-09T06:03:08.870Z,45.43
2023-05-09T06:05:52.184Z,45.38
2023-05-09T06:08:21.308Z,44.55
2023-05-09T06:10:51.735Z,44.90
2023-05-09T06:13:21.469Z,44.78
2023-05-09T06:16:01.975Z,45.04
2023-05-09T06:18:40.335Z,43.99
2023-05-09T06:21:09.653Z,43.81
2023-05-09T06:23:42.663Z,43.68
2023-05-09T06:26:24.363Z,43.09
2023-05-09T06:28:53.419Z,42.51
2023-05-09T06:31:25.417Z,42.97
2023-05-09T06:33:56.878Z,43.37
2023-05-09T06:36:26.443Z,42.62
2023-05-09T06:38:55.625Z,42.58
2023-05-09T06:41:26.280Z,42.13
2023-05-09T06:43:55.260Z,42.55
2023-05-09T06:46:24.337Z,41.71
2023-05-09T06:48:53.415Z,41.99
2023-05-09T06:51:22.658Z,41.85
2023-05-09T06:53:52.093Z,42.14
2023-05-09T06:56:22.846Z,41.50
2023-05-09T06:58:54.292Z,41.19
2023-05-09T07:01:23.827Z,40.82
2023-05-09T07:03:53.006Z,40.33
2023-05-09T07:06:22.228Z,39.72
2023-05-09T07:08:51.634Z,39.14
2023-05-09T07:11:21.203Z,40.16
2023-05-09T07:13:50.402Z,39.38
2023-05-09T07:16:23.164Z,37.49
2023-05-09T07:19:20.894Z,37.74
2023-05-09T07:21:50.199Z,38.22
2023-05-09T07:24:19.294Z,36.46
2023-05-09T07:26:48.799Z,36.51
2023-05-09T07:29:20.226Z,36.46
2023-05-09T07:31:51.055Z,36.17
2023-05-09T07:34:20.829Z,35.58
2023-05-09T07:36:50.036Z,34.34
2023-05-09T07:39:19.267Z,33.71
2023-05-09T07:41:51.010Z,33.55
2023-05-09T07:44:20.557Z,33.55
2023-05-09T07:46:55.540Z,33.90
2023-05-09T07:49:24.938Z,34.00
2023-05-09T07:51:54.562Z,33.88
2023-05-09T07:54:23.634Z,32.65
2023-05-09T07:56:52.774Z,32.71
2023-05-09T07:59:21.958Z,31.47
2023-05-09T08:01:51.419Z,30.76
2023-05-09T08:04:21.970Z,31.29
2023-05-09T08:06:51.061Z,30.55
2023-05-09T08:09:22.285Z,29.85
2023-05-09T08:11:53.975Z,29.88
2023-05-09T08:14:23.184Z,29.20
2023-05-09T08:16:54.868Z,29.25
2023-05-09T08:19:26.452Z,28.65
2023-05-09T08:21:56.194Z,29.15
2023-05-09T08:24:25.375Z,28.46
2023-05-09T08:26:54.550Z,27.17
2023-05-09T08:29:23.628Z,27.16
2023-05-09T08:31:53.282Z,27.88
2023-05-09T08:34:23.173Z,28.65
2023-05-09T08:36:54.217Z,27.94
2023-05-09T08:39:25.844Z,27.49
2023-05-09T08:41:59.134Z,27.21
2023-05-09T08:44:30.038Z,27.25
2023-05-09T08:47:01.920Z,26.75
2023-05-09T08:49:31.842Z,26.96
2023-05-09T08:52:03.173Z,27.24
2023-05-09T08:54:32.576Z,27.55
2023-05-09T08:57:02.696Z,26.57
2023-05-09T08:59:35.646Z,26.17
2023-05-09T09:02:08.552Z,27.04
2023-05-09T09:04:37.821Z,26.25
2023-05-09T09:07:09.554Z,26.20
2023-05-09T09:09:45.060Z,26.29
2023-05-09T09:12:17.016Z,25.20
2023-05-09T09:14:50.270Z,26.34
2023-05-09T09:17:22.120Z,26.37
2023-05-09T09:19:54.738Z,26.91
2023-05-09T09:22:26.293Z,26.99
2023-05-09T09:24:55.469Z,26.83
2023-05-09T09:27:24.645Z,26.17
2023-05-09T09:29:54.139Z,26.96
2023-05-09T09:32:35.086Z,26.67
2023-05-09T09:35:08.250Z,26.81
2023-05-09T09:37:40.567Z,27.28
2023-05-09T09:40:11.553Z,26.75
2023-05-09T09:42:45.642Z,27.16
2023-05-09T09:45:16.604Z,26.67
2023-05-09T09:47:47.203Z,27.34
2023-05-09T09:50:17.905Z,26.36
2023-05-09T09:52:52.725Z,27.08
2023-05-09T09:55:23.226Z,26.78
2023-05-09T09:57:52.885Z,26.94
2023-05-09T10:00:27.688Z,26.37
2023-05-09T10:02:58.931Z,26.65
2023-05-09T10:05:29.268Z,26.15
2023-05-09T10:08:01.588Z,26.25
2023-05-09T10:10:32.577Z,26.96
2023-05-09T10:13:04.259Z,26.31
2023-05-09T10:15:45.158Z,24.39
2023-05-09T10:18:26.903Z,24.51
2023-05-09T10:21:00.966Z,25.21
2023-05-09T10:23:34.252Z,25.83
2023-05-09T10:26:10.039Z,26.41
2023-05-09T10:28:43.244Z,23.43
2023-05-09T10:31:17.769Z,24.85
2023-05-09T10:33:51.215Z,23.53
2023-05-09T10:36:22.413Z,23.54
2023-05-09T10:38:56.494Z,24.61
2023-05-09T10:41:26.859Z,24.75
2023-05-09T10:44:00.406Z,24.47
2023-05-09T10:46:29.750Z,24.33
2023-05-09T10:49:00.187Z,24.82
2023-05-09T10:51:29.979Z,24.48
2023-05-09T10:54:02.087Z,23.97
2023-05-09T10:56:33.107Z,25.17
2023-05-09T10:59:03.096Z,24.75
2023-05-09T11:01:35.542Z,24.92
2023-05-09T11:04:11.553Z,24.63
2023-05-09T11:06:51.129Z,24.92
2023-05-09T11:09:33.767Z,25.15
2023-05-09T11:12:10.664Z,25.71
2023-05-09T11:14:43.086Z,25.18
2023-05-09T11:17:13.939Z,24.07
2023-05-09T11:20:00.346Z,22.96
2023-05-09T11:22:32.613Z,22.96
2023-05-09T11:25:05.949Z,22.45
2023-05-09T11:27:42.631Z,23.81
2023-05-09T11:30:14.546Z,24.98
2023-05-09T11:32:46.476Z,24.94
2023-05-09T11:35:17.876Z,25.28
2023-05-09T11:37:49.747Z,24.78
2023-05-09T11:40:21.835Z,23.46
2023-05-09T11:42:57.774Z,22.63
2023-05-09T11:45:30.286Z,24.17
2023-05-09T11:48:00.783Z,25.03
2023-05-09T11:50:32.862Z,25.20
2023-05-09T11:53:02.425Z,26.15
2023-05-09T11:55:33.442Z,26.53
2023-05-09T11:58:02.566Z,25.74
2023-05-09T12:00:32.058Z,25.93
2023-05-09T12:03:01.217Z,26.71
2023-05-09T12:05:30.766Z,25.71
2023-05-09T12:08:07.654Z,26.57
2023-05-09T12:10:40.314Z,25.79
2023-05-09T12:13:14.550Z,25.54
2023-05-09T12:15:44.301Z,25.57
2023-05-09T12:18:13.758Z,24.96
2023-05-09T12:20:44.701Z,25.16
2023-05-09T12:23:14.553Z,24.81
2023-05-09T12:25:55.467Z,23.55
2023-05-09T12:28:25.166Z,25.36
2023-05-09T12:30:55.162Z,24.82
2023-05-09T12:33:25.251Z,24.43
2023-05-09T12:36:04.189Z,26.02
2023-05-09T12:38:33.384Z,26.97
2023-05-09T12:41:15.392Z,26.20
2023-05-09T12:44:30.014Z,25.36
2023-05-09T12:47:01.472Z,25.24
2023-05-09T12:49:34.226Z,23.30
2023-05-09T12:52:09.119Z,19.28
2023-05-09T12:54:39.109Z,17.69
2023-05-09T12:57:31.529Z,20.99
2023-05-09T13:00:03.516Z,22.74
2023-05-09T13:02:38.989Z,23.50
2023-05-09T13:05:13.040Z,24.32
2023-05-09T13:07:44.056Z,24.18
2023-05-09T13:10:14.949Z,24.45
2023-05-09T13:12:48.314Z,25.09
2023-05-09T13:15:20.854Z,25.20
2023-05-09T13:17:54.903Z,25.76
2023-05-09T13:20:24.338Z,25.29
2023-05-09T13:22:56.790Z,26.04
2023-05-09T13:25:27.000Z,25.32
2023-05-09T13:27:57.163Z,25.22
2023-05-09T13:30:28.224Z,25.83
2023-05-09T13:32:58.145Z,26.14
2023-05-09T13:35:31.686Z,25.92
2023-05-09T13:38:01.764Z,25.17
2023-05-09T13:40:34.050Z,24.74
2023-05-09T13:43:03.713Z,24.50
2023-05-09T13:45:34.480Z,24.85
2023-05-09T13:48:05.496Z,24.93
2023-05-09T13:50:37.960Z,25.37
2023-05-09T13:53:13.892Z,25.50
2023-05-09T13:55:48.646Z,23.90
2023-05-09T13:58:19.105Z,20.54
2023-05-09T14:00:50.952Z,19.99
2023-05-09T14:03:20.585Z,21.92
2023-05-09T14:05:52.019Z,21.22
2023-05-09T14:08:22.362Z,21.56
2023-05-09T14:10:59.295Z,19.59
2023-05-09T14:13:34.870Z,20.97
2023-05-09T14:16:09.048Z,20.48
2023-05-09T14:18:38.310Z,19.90
2023-05-09T14:21:07.998Z,18.52
2023-05-09T14:23:37.364Z,19.38
2023-05-09T14:26:07.406Z,21.37
2023-05-09T14:28:37.578Z,21.31
2023-05-09T14:31:08.749Z,20.17
2023-05-09T14:33:41.312Z,21.81
2023-05-09T14:36:14.619Z,18.97
2023-05-09T14:38:46.990Z,22.01
2023-05-09T14:41:20.284Z,23.47
2023-05-09T14:43:53.595Z,23.52
2023-05-09T14:46:25.244Z,24.60
2023-05-09T14:48:57.581Z,25.17
2023-05-09T14:51:28.700Z,25.88
2023-05-09T14:53:57.722Z,26.46
2023-05-09T14:56:26.909Z,27.19
2023-05-09T14:58:56.256Z,27.75
2023-05-09T15:01:29.186Z,27.44
2023-05-09T15:03:59.054Z,27.65
2023-05-09T15:06:29.433Z,27.49
2023-05-09T15:09:13.316Z,27.73
2023-05-09T15:11:48.177Z,28.17
2023-05-09T15:14:18.418Z,28.20
2023-05-09T15:16:51.782Z,28.74
2023-05-09T15:19:22.553Z,28.93
2023-05-09T15:21:52.405Z,28.99
2023-05-09T15:24:21.686Z,29.23
2023-05-09T15:26:52.048Z,29.46
2023-05-09T15:29:22.899Z,29.91
2023-05-09T15:31:55.167Z,29.68
2023-05-09T15:34:24.649Z,29.50
2023-05-09T15:37:00.528Z,30.11
2023-05-09T15:39:34.515Z,29.51
2023-05-09T15:42:05.312Z,29.93
2023-05-09T15:44:37.180Z,29.91
2023-05-09T15:47:07.811Z,30.01
2023-05-09T15:49:37.236Z,29.81
2023-05-09T15:52:09.810Z,29.71
2023-05-09T15:54:40.362Z,29.34
2023-05-09T15:57:10.822Z,29.20
2023-05-09T15:59:42.787Z,29.90
2023-05-09T16:02:14.078Z,29.86
2023-05-09T16:04:51.892Z,29.80
2023-05-09T16:07:29.989Z,29.99
2023-05-09T16:10:00.454Z,30.24
2023-05-09T16:12:32.842Z,30.14
2023-05-09T16:15:02.371Z,30.30
2023-05-09T16:17:36.554Z,30.36
2023-05-09T16:20:07.297Z,30.73
2023-05-09T16:22:44.271Z,30.60
2023-05-09T16:25:14.006Z,31.14
2023-05-09T16:27:43.945Z,30.67
2023-05-09T16:30:14.867Z,30.77
2023-05-09T16:32:47.284Z,31.13
2023-05-09T16:35:23.875Z,31.35
2023-05-09T16:37:53.830Z,31.66
2023-05-09T16:40:23.279Z,31.91
2023-05-09T16:42:53.879Z,32.20
2023-05-09T16:45:24.018Z,32.52
2023-05-09T16:47:55.726Z,32.38
2023-05-09T16:50:25.084Z,32.57
2023-05-09T16:52:55.659Z,33.26
2023-05-09T16:55:25.891Z,32.77
2023-05-09T16:57:55.283Z,32.94
2023-05-09T17:00:24.883Z,33.03
2023-05-09T17:02:58.055Z,33.29
2023-05-09T17:05:28.743Z,33.34
2023-05-09T17:07:58.150Z,33.51
2023-05-09T17:10:28.023Z,33.64
2023-05-09T17:12:58.442Z,33.82
2023-05-09T17:15:28.595Z,34.17
2023-05-09T17:17:59.282Z,34.32
2023-05-09T17:20:29.017Z,34.78
2023-05-09T17:22:59.559Z,34.67
2023-05-09T17:25:29.074Z,35.20
2023-05-09T17:27:58.531Z,35.48
2023-05-09T17:30:28.180Z,35.38
2023-05-09T17:32:58.940Z,35.84
2023-05-09T17:35:28.436Z,35.86
2023-05-09T17:37:57.784Z,35.80
2023-05-09T17:40:27.053Z,35.72
2023-05-09T17:42:56.311Z,35.62
2023-05-09T17:45:25.828Z,35.80
2023-05-09T17:47:55.075Z,36.32
2023-05-09T17:50:25.587Z,36.71
2023-05-09T17:52:56.854Z,36.28
2023-05-09T17:55:25.969Z,35.68
2023-05-09T17:57:55.613Z,36.11
2023-05-09T18:00:25.695Z,36.29
2023-05-09T18:02:56.686Z,36.18
2023-05-09T18:05:30.637Z,36.65
2023-05-09T18:08:01.451Z,36.48
2023-05-09T18:10:30.707Z,36.74
2023-05-09T18:12:59.888Z,37.39
2023-05-09T18:15:29.422Z,37.25
2023-05-09T18:18:16.290Z,37.52
2023-05-09T18:20:57.050Z,36.88
2023-05-09T18:23:28.494Z,36.95
2023-05-09T18:25:58.628Z,38.25
2023-05-09T18:28:28.928Z,38.34
2023-05-09T18:31:00.647Z,38.39
2023-05-09T18:33:30.011Z,38.13
2023-05-09T18:36:00.273Z,37.96
2023-05-09T18:38:29.689Z,38.57
2023-05-09T18:40:58.640Z,38.86
2023-05-09T18:43:29.358Z,39.39
2023-05-09T18:45:59.041Z,39.67
2023-05-09T18:48:28.415Z,40.43
2023-05-09T18:50:58.320Z,40.62
2023-05-09T18:53:29.092Z,40.93
2023-05-09T18:55:58.526Z,41.09
2023-05-09T18:58:28.885Z,41.34
2023-05-09T19:01:01.996Z,41.52
2023-05-09T19:03:31.010Z,42.18
2023-05-09T19:06:01.061Z,40.97
2023-05-09T19:08:31.696Z,40.08
2023-05-09T19:11:02.486Z,39.94
2023-05-09T19:13:33.813Z,39.90
2023-05-09T19:16:04.007Z,39.76
2023-05-09T19:18:33.178Z,40.73
2023-05-09T19:21:02.908Z,40.72
2023-05-09T19:23:33.215Z,41.16
2023-05-09T19:26:03.616Z,41.75
2023-05-09T19:28:36.116Z,40.77
2023-05-09T19:31:05.542Z,40.39
2023-05-09T19:33:34.924Z,40.55
2023-05-09T19:36:04.475Z,40.87
2023-05-09T19:38:40.438Z,42.45
2023-05-09T19:41:10.879Z,42.63
2023-05-09T19:43:43.939Z,42.59
2023-05-09T19:46:15.984Z,42.79
2023-05-09T19:48:46.975Z,43.43
2023-05-09T19:51:25.646Z,42.93
2023-05-09T19:53:56.477Z,43.98
2023-05-09T19:56:25.859Z,44.73
2023-05-09T19:58:55.139Z,44.80
2023-05-09T20:01:25.427Z,44.66
2023-05-09T20:03:56.997Z,44.75
2023-05-09T20:06:26.867Z,44.34
2023-05-09T20:08:57.590Z,44.90
2023-05-09T20:11:27.652Z,44.99
2023-05-09T20:13:57.859Z,45.11
2023-05-09T20:16:27.288Z,45.15
2023-05-09T20:18:56.482Z,46.00
2023-05-09T20:21:27.307Z,45.81
2023-05-09T20:23:57.695Z,46.79
2023-05-09T20:26:28.387Z,46.18
2023-05-09T20:29:01.474Z,45.76
2023-05-09T20:31:31.247Z,46.34
2023-05-09T20:34:01.193Z,46.43
2023-05-09T20:36:34.466Z,46.52
2023-05-09T20:39:05.222Z,47.05
2023-05-09T20:41:34.969Z,48.03
2023-05-09T20:44:04.734Z,47.91
2023-05-09T20:46:43.014Z,48.44
2023-05-09T20:49:18.334Z,48.11
2023-05-09T20:51:48.616Z,48.80
2023-05-09T20:54:19.241Z,49.48
2023-05-09T20:56:48.704Z,49.29
2023-05-09T20:59:17.884Z,49.38
2023-05-09T21:01:47.499Z,49.94
2023-05-09T21:04:16.988Z,51.67
2023-05-09T21:06:46.314Z,50.76
2023-05-09T21:09:16.021Z,50.25
2023-05-09T21:11:46.613Z,49.66
2023-05-09T21:14:15.812Z,50.81
2023-05-09T21:16:46.763Z,52.05
2023-05-09T21:19:17.324Z,52.57
2023-05-09T21:21:46.728Z,53.29
2023-05-09T21:24:15.839Z,55.10
2023-05-09T21:26:46.159Z,55.88
2023-05-09T21:29:15.739Z,55.89
2023-05-09T21:31:45.252Z,58.40
2023-05-09T21:34:14.877Z,59.26
2023-05-09T21:36:43.913Z,61.60
2023-05-09T21:39:13.554Z,62.12
2023-05-09T21:41:43.614Z,64.42
2023-05-09T21:44:13.930Z,63.02
2023-05-09T21:46:46.186Z,63.72
2023-05-09T21:49:17.232Z,63.52
2023-05-09T21:51:46.229Z,62.63
2023-05-09T21:54:15.687Z,58.08
2023-05-09T21:56:44.558Z,60.21
2023-05-09T21:59:15.214Z,60.55
2023-05-09T22:01:45.860Z,69.44
2023-05-09T22:04:15.701Z,70.28
2023-05-09T22:06:44.797Z,66.35
2023-05-09T22:09:14.451Z,71.67
2023-05-09T22:11:43.525Z,68.82
2023-05-09T22:14:14.075Z,70.22
2023-05-09T22:16:43.071Z,70.77
2023-05-09T22:19:12.419Z,68.94
2023-05-09T22:21:41.611Z,71.03
2023-05-09T22:24:10.518Z,73.18
2023-05-09T22:26:39.524Z,73.35
2023-05-09T22:29:08.628Z,72.37
2023-05-09T22:31:39.014Z,74.44
2023-05-09T22:34:07.980Z,72.90
2023-05-09T22:36:36.849Z,72.47
2023-05-09T22:39:06.174Z,71.70
2023-05-09T22:41:35.049Z,69.27
2023-05-09T22:44:04.375Z,71.30
2023-05-09T22:46:33.574Z,70.93
2023-05-09T22:49:04.148Z,71.25
2023-05-09T22:51:33.545Z,69.06
2023-05-09T22:54:02.627Z,70.38
2023-05-09T22:56:31.481Z,70.28
2023-05-09T22:59:00.568Z,74.61
2023-05-09T23:01:29.511Z,75.18
2023-05-09T23:03:58.602Z,72.19
2023-05-09T23:06:29.312Z,72.41
2023-05-09T23:08:58.829Z,69.21
2023-05-09T23:11:27.916Z,69.07
2023-05-09T23:13:57.007Z,71.61
2023-05-09T23:16:25.969Z,68.73
2023-05-09T23:18:55.403Z,68.45
2023-05-09T23:21:24.574Z,67.50
2023-05-09T23:23:54.944Z,65.31
2023-05-09T23:26:23.840Z,65.41
2023-05-09T23:28:55.333Z,63.18
2023-05-09T23:31:24.614Z,61.73
2023-05-09T23:33:53.695Z,65.31
2023-05-09T23:36:22.773Z,66.79
2023-05-09T23:38:51.746Z,69.39
2023-05-09T23:41:22.197Z,70.13
2023-05-09T23:43:51.062Z,71.00
2023-05-09T23:46:20.032Z,74.57
2023-05-09T23:48:48.941Z,67.56
2023-05-09T23:51:20.098Z,65.46
2023-05-09T23:53:49.349Z,63.94
2023-05-09T23:56:18.397Z,64.10
2023-05-09T23:58:48.616Z,64.35
